createdAt,value
2019-02-23T00:00:43.125Z,9.45
2019-02-23T00:03:12.021Z,8.30
2019-02-23T00:05:40.909Z,6.97
2019-02-23T00:08:09.857Z,12.73
2019-02-23T00:10:38.721Z,8.05
2019-02-23T00:13:07.602Z,9.65
2019-02-23T00:15:36.483Z,13.80
2019-02-23T00:18:05.410Z,10.38
2019-02-23T00:20:34.287Z,8.53
2019-02-23T00:23:03.163Z,13.25
2019-02-23T00:25:32.005Z,8.78
2019-02-23T00:28:00.904Z,9.68
2019-02-23T00:30:29.806Z,9.43
2019-02-23T00:32:58.657Z,8.28
2019-02-23T00:35:27.524Z,9.58
2019-02-23T00:37:56.593Z,8.13
2019-02-23T00:40:25.451Z,9.30
2019-02-23T00:42:54.319Z,8.68
2019-02-23T00:45:23.214Z,11.00
2019-02-23T00:47:52.078Z,11.15
2019-02-23T00:50:20.973Z,10.50
2019-02-23T00:52:49.823Z,8.28
2019-02-23T00:55:18.727Z,8.58
2019-02-23T00:57:47.611Z,9.38
2019-02-23T01:00:16.470Z,8.93
2019-02-23T01:02:45.349Z,7.25
2019-02-23T01:05:14.240Z,8.20
2019-02-23T01:07:43.147Z,10.20
2019-02-23T01:10:12.190Z,10.65
2019-02-23T01:12:41.041Z,8.55
2019-02-23T01:15:11.054Z,8.30
2019-02-23T01:17:39.914Z,11.78
2019-02-23T01:20:10.244Z,12.73
2019-02-23T01:22:39.100Z,7.42
2019-02-23T01:25:08.525Z,12.35
2019-02-23T01:27:37.380Z,8.50
2019-02-23T01:30:08.786Z,8.25
2019-02-23T01:32:37.667Z,12.15
2019-02-23T01:35:06.692Z,9.33
2019-02-23T01:37:35.569Z,8.98
2019-02-23T01:40:06.972Z,9.83
2019-02-23T01:42:35.903Z,9.03
2019-02-23T01:45:06.474Z,8.28
2019-02-23T01:47:35.351Z,14.50
2019-02-23T01:50:04.795Z,11.00
2019-02-23T01:52:33.661Z,9.83
2019-02-23T01:55:02.512Z,14.38
2019-02-23T01:57:31.375Z,10.58
2019-02-23T02:00:00.462Z,13.65
2019-02-23T02:02:29.403Z,9.80
2019-02-23T02:04:58.285Z,9.28
2019-02-23T02:07:27.175Z,12.23
2019-02-23T02:09:56.320Z,10.23
2019-02-23T02:12:25.173Z,13.50
2019-02-23T02:14:54.057Z,15.98
2019-02-23T02:17:22.948Z,8.55
2019-02-23T02:19:51.812Z,11.73
2019-02-23T02:22:20.707Z,13.08
2019-02-23T02:24:49.555Z,12.23
2019-02-23T02:27:18.439Z,10.70
2019-02-23T02:29:47.341Z,10.80
2019-02-23T02:32:16.196Z,9.15
2019-02-23T02:34:45.057Z,13.75
2019-02-23T02:37:13.933Z,17.07
2019-02-23T02:39:42.840Z,12.68
2019-02-23T02:42:11.702Z,14.55
2019-02-23T02:44:40.585Z,10.82
2019-02-23T02:47:09.454Z,9.65
2019-02-23T02:49:38.320Z,12.47
2019-02-23T02:52:07.195Z,11.88
2019-02-23T02:54:36.074Z,12.43
2019-02-23T02:57:04.928Z,12.95
2019-02-23T02:59:33.812Z,11.48
2019-02-23T03:02:02.689Z,10.40
2019-02-23T03:04:31.564Z,12.82
2019-02-23T03:07:00.468Z,10.80
2019-02-23T03:09:29.304Z,14.70
2019-02-23T03:11:58.200Z,14.20
2019-02-23T03:14:27.053Z,12.05
2019-02-23T03:16:55.917Z,14.87
2019-02-23T03:19:24.787Z,11.70
2019-02-23T03:21:53.743Z,13.78
2019-02-23T03:24:22.590Z,13.30
2019-02-23T03:26:51.444Z,11.68
2019-02-23T03:29:20.332Z,13.15
2019-02-23T03:31:49.245Z,15.65
2019-02-23T03:34:18.095Z,14.23
2019-02-23T03:36:46.982Z,14.23
2019-02-23T03:39:15.884Z,12.60
2019-02-23T03:41:44.738Z,14.63
2019-02-23T03:44:13.600Z,17.67
2019-02-23T03:46:42.471Z,19.90
2019-02-23T03:49:11.348Z,15.23
2019-02-23T03:51:40.194Z,13.25
2019-02-23T03:54:09.049Z,15.60
2019-02-23T03:56:38.074Z,13.30
2019-02-23T03:59:06.927Z,12.60
2019-02-23T04:01:35.946Z,17.40
2019-02-23T04:04:04.806Z,14.98
2019-02-23T04:06:33.665Z,12.88
2019-02-23T04:09:02.983Z,17.32
2019-02-23T04:11:31.958Z,13.08
2019-02-23T04:14:00.833Z,13.95
2019-02-23T04:16:29.685Z,15.78
2019-02-23T04:18:58.562Z,16.07
2019-02-23T04:21:27.410Z,14.00
2019-02-23T04:23:56.306Z,15.93
2019-02-23T04:26:25.181Z,13.68
2019-02-23T04:28:54.047Z,19.17
2019-02-23T04:31:22.947Z,15.25
2019-02-23T04:33:51.799Z,16.55
2019-02-23T04:36:20.675Z,14.05
2019-02-23T04:38:49.525Z,15.90
2019-02-23T04:41:18.517Z,16.37
2019-02-23T04:43:47.448Z,21.50
2019-02-23T04:46:16.312Z,17.05
2019-02-23T04:48:45.216Z,16.35
2019-02-23T04:51:14.916Z,17.32
2019-02-23T04:53:43.862Z,19.77
2019-02-23T04:56:12.748Z,18.52
2019-02-23T04:58:41.636Z,18.02
2019-02-23T05:01:10.570Z,15.58
2019-02-23T05:03:39.468Z,17.15
2019-02-23T05:06:08.363Z,18.35
2019-02-23T05:08:37.226Z,13.70
2019-02-23T05:11:06.150Z,24.52
2019-02-23T05:13:35.038Z,17.65
2019-02-23T05:16:03.927Z,17.52
2019-02-23T05:18:32.780Z,15.65
2019-02-23T05:21:01.672Z,17.35
2019-02-23T05:23:30.532Z,24.85
2019-02-23T05:25:59.380Z,18.85
2019-02-23T05:28:28.282Z,15.55
2019-02-23T05:30:57.131Z,18.95
2019-02-23T05:33:26.727Z,17.20
2019-02-23T05:35:55.573Z,13.43
2019-02-23T05:38:24.432Z,15.78
2019-02-23T05:40:53.318Z,21.95
2019-02-23T05:43:22.226Z,23.22
2019-02-23T05:45:51.116Z,17.55
2019-02-23T05:48:20.167Z,20.72
2019-02-23T05:50:49.776Z,19.05
2019-02-23T05:53:18.658Z,17.23
2019-02-23T05:55:47.505Z,15.65
2019-02-23T05:58:16.373Z,21.68
2019-02-23T06:00:45.325Z,14.65
2019-02-23T06:03:14.190Z,16.60
2019-02-23T06:05:43.049Z,12.95
2019-02-23T06:08:11.920Z,17.27
2019-02-23T06:10:40.806Z,15.38
2019-02-23T06:13:12.782Z,18.07
2019-02-23T06:15:41.630Z,18.05
2019-02-23T06:18:10.496Z,16.23
2019-02-23T06:20:39.367Z,14.87
2019-02-23T06:23:08.256Z,22.00
2019-02-23T06:25:37.118Z,21.40
2019-02-23T06:28:05.998Z,24.10
2019-02-23T06:30:35.758Z,24.05
2019-02-23T06:33:04.624Z,19.48
2019-02-23T06:35:33.514Z,21.77
2019-02-23T06:38:02.463Z,16.77
2019-02-23T06:40:31.351Z,18.80
2019-02-23T06:43:00.250Z,17.82
2019-02-23T06:45:29.154Z,21.60
2019-02-23T06:47:58.020Z,15.60
2019-02-23T06:50:26.874Z,18.52
2019-02-23T06:52:55.734Z,25.97
2019-02-23T06:55:24.619Z,15.88
2019-02-23T06:57:53.512Z,28.65
2019-02-23T07:00:22.374Z,18.77
2019-02-23T07:02:51.321Z,21.60
2019-02-23T07:05:20.217Z,23.90
2019-02-23T07:07:49.078Z,20.95
2019-02-23T07:10:17.934Z,21.35
2019-02-23T07:12:46.810Z,20.25
2019-02-23T07:15:15.728Z,19.67
2019-02-23T07:17:44.627Z,19.17
2019-02-23T07:20:13.492Z,21.15
2019-02-23T07:22:42.371Z,21.35
2019-02-23T07:25:11.263Z,22.82
2019-02-23T07:27:40.881Z,23.15
2019-02-23T07:30:12.398Z,23.87
2019-02-23T07:32:41.302Z,18.95
2019-02-23T07:35:10.334Z,21.10
2019-02-23T07:37:39.223Z,24.85
2019-02-23T07:40:11.377Z,20.27
2019-02-23T07:42:40.613Z,23.42
2019-02-23T07:45:10.555Z,26.40
2019-02-23T07:47:39.417Z,24.30
2019-02-23T07:50:11.554Z,23.25
2019-02-23T07:52:40.442Z,16.57
2019-02-23T07:55:09.324Z,22.77
2019-02-23T07:57:38.219Z,18.70
2019-02-23T08:00:10.159Z,20.12
2019-02-23T08:02:39.019Z,17.67
2019-02-23T08:05:09.843Z,21.12
2019-02-23T08:07:39.940Z,22.90
2019-02-23T08:10:14.268Z,17.50
2019-02-23T08:12:43.156Z,22.27
2019-02-23T08:15:12.557Z,26.27
2019-02-23T08:17:41.453Z,21.20
2019-02-23T08:20:11.764Z,18.77
2019-02-23T08:22:40.635Z,18.27
2019-02-23T08:25:13.679Z,24.40
2019-02-23T08:27:42.574Z,21.12
2019-02-23T08:30:18.009Z,21.20
2019-02-23T08:32:47.080Z,14.75
2019-02-23T08:35:16.052Z,16.80
2019-02-23T08:37:44.948Z,22.80
2019-02-23T08:40:15.780Z,16.05
2019-02-23T08:42:44.664Z,31.93
2019-02-23T08:45:13.528Z,21.48
2019-02-23T08:47:42.380Z,19.80
2019-02-23T08:50:13.693Z,20.27
2019-02-23T08:52:49.226Z,23.75
2019-02-23T08:55:13.178Z,18.42
2019-02-23T08:57:42.535Z,17.95
2019-02-23T09:00:14.035Z,20.65
2019-02-23T09:02:42.917Z,19.25
2019-02-23T09:05:12.613Z,18.12
2019-02-23T09:07:41.467Z,20.05
2019-02-23T09:10:12.605Z,19.20
2019-02-23T09:12:41.448Z,19.55
2019-02-23T09:15:11.055Z,21.30
2019-02-23T09:17:39.941Z,14.93
2019-02-23T09:20:10.635Z,15.90
2019-02-23T09:22:39.670Z,14.20
2019-02-23T09:25:10.285Z,20.52
2019-02-23T09:27:39.172Z,16.67
2019-02-23T09:30:13.085Z,18.67
2019-02-23T09:32:42.043Z,16.93
2019-02-23T09:35:11.156Z,17.52
2019-02-23T09:37:40.019Z,15.03
2019-02-23T09:40:11.978Z,15.80
2019-02-23T09:42:41.254Z,13.93
2019-02-23T09:45:12.053Z,14.58
2019-02-23T09:47:40.912Z,17.00
2019-02-23T09:50:09.800Z,15.98
2019-02-23T09:52:38.668Z,13.05
2019-02-23T09:55:09.286Z,15.35
2019-02-23T09:57:38.179Z,18.48
2019-02-23T10:00:12.116Z,14.70
2019-02-23T10:02:41.006Z,14.53
2019-02-23T10:05:10.126Z,23.00
2019-02-23T10:07:38.974Z,13.58
2019-02-23T10:10:10.317Z,12.30
2019-02-23T10:12:39.172Z,12.05
2019-02-23T10:15:11.772Z,14.58
2019-02-23T10:17:40.660Z,21.20
2019-02-23T10:20:12.634Z,13.35
2019-02-23T10:22:41.493Z,14.10
2019-02-23T10:25:10.473Z,9.68
2019-02-23T10:27:39.338Z,13.05
2019-02-23T10:30:13.155Z,11.10
2019-02-23T10:32:42.053Z,11.48
2019-02-23T10:35:12.620Z,11.45
2019-02-23T10:37:41.482Z,9.80
2019-02-23T10:40:12.011Z,10.98
2019-02-23T10:42:40.929Z,22.67
2019-02-23T10:45:11.710Z,9.68
2019-02-23T10:47:40.624Z,11.08
2019-02-23T10:50:11.439Z,17.48
2019-02-23T10:52:40.310Z,11.55
2019-02-23T10:55:11.331Z,11.00
2019-02-23T10:57:40.219Z,9.93
2019-02-23T11:00:13.754Z,11.15
2019-02-23T11:02:42.637Z,11.43
2019-02-23T11:05:11.723Z,12.05
2019-02-23T11:07:40.609Z,9.38
2019-02-23T11:10:10.311Z,11.08
2019-02-23T11:12:39.164Z,10.98
2019-02-23T11:15:13.125Z,12.95
2019-02-23T11:17:41.970Z,7.90
2019-02-23T11:20:11.715Z,8.88
2019-02-23T11:22:40.623Z,11.95
2019-02-23T11:25:11.305Z,9.00
2019-02-23T11:27:40.241Z,11.93
2019-02-23T11:30:11.803Z,14.13
2019-02-23T11:32:40.693Z,11.68
2019-02-23T11:35:11.922Z,10.40
2019-02-23T11:37:40.810Z,13.53
2019-02-23T11:40:11.616Z,13.38
2019-02-23T11:42:40.493Z,18.60
2019-02-23T11:45:10.882Z,13.88
2019-02-23T11:47:39.786Z,16.67
2019-02-23T11:50:10.744Z,10.23
2019-02-23T11:52:41.125Z,10.72
2019-02-23T11:55:10.065Z,8.00
2019-02-23T11:57:38.903Z,16.97
2019-02-23T12:00:10.569Z,14.00
2019-02-23T12:02:39.471Z,11.57
2019-02-23T12:05:10.022Z,19.05
2019-02-23T12:07:38.887Z,11.03
2019-02-23T12:10:10.803Z,17.82
2019-02-23T12:12:39.649Z,9.88
2019-02-23T12:15:09.197Z,13.08
2019-02-23T12:17:38.077Z,14.93
2019-02-23T12:20:10.941Z,11.10
2019-02-23T12:22:39.845Z,16.30
2019-02-23T12:25:09.089Z,17.52
2019-02-23T12:27:38.041Z,14.73
2019-02-23T12:30:10.015Z,11.95
2019-02-23T12:32:38.902Z,16.35
2019-02-23T12:35:10.199Z,13.18
2019-02-23T12:37:39.248Z,10.08
2019-02-23T12:40:09.827Z,9.93
2019-02-23T12:42:38.727Z,9.05
2019-02-23T12:45:12.909Z,15.60
2019-02-23T12:47:41.832Z,10.58
2019-02-23T12:50:11.963Z,8.68
2019-02-23T12:52:40.845Z,9.88
2019-02-23T12:55:11.150Z,12.93
2019-02-23T12:57:40.043Z,10.40
2019-02-23T13:00:14.231Z,11.40
2019-02-23T13:02:43.097Z,9.83
2019-02-23T13:05:12.029Z,11.22
2019-02-23T13:07:40.884Z,10.28
2019-02-23T13:10:11.900Z,11.65
2019-02-23T13:12:46.548Z,11.15
2019-02-23T13:15:21.599Z,9.58
2019-02-23T13:18:01.913Z,8.57
2019-02-23T13:20:36.190Z,9.73
2019-02-23T13:23:17.069Z,11.65
2019-02-23T13:25:54.951Z,13.08
2019-02-23T13:28:46.643Z,14.68
2019-02-23T13:31:23.311Z,11.38
2019-02-23T13:34:00.039Z,8.90
2019-02-23T13:36:31.755Z,16.37
2019-02-23T13:39:35.632Z,10.40
2019-02-23T13:42:18.953Z,12.40
2019-02-23T13:45:06.156Z,11.38
2019-02-23T13:47:56.069Z,12.15
2019-02-23T13:50:30.544Z,9.98
2019-02-23T13:53:14.175Z,9.30
2019-02-23T13:56:04.212Z,12.60
2019-02-23T13:58:36.117Z,18.82
2019-02-23T14:01:24.792Z,14.15
2019-02-23T14:03:59.682Z,10.88
2019-02-23T14:06:34.587Z,10.45
2019-02-23T14:09:39.598Z,11.03
2019-02-23T14:12:30.972Z,8.95
2019-02-23T14:15:11.688Z,13.65
2019-02-23T14:17:55.371Z,12.55
2019-02-23T14:20:48.502Z,12.35
2019-02-23T14:23:28.605Z,11.63
2019-02-23T14:26:06.556Z,12.73
2019-02-23T14:28:47.015Z,12.00
2019-02-23T14:31:24.430Z,13.53
2019-02-23T14:33:59.047Z,12.25
2019-02-23T14:36:42.862Z,17.10
2019-02-23T14:39:31.570Z,15.05
2019-02-23T14:42:03.500Z,10.18
2019-02-23T14:44:50.522Z,8.03
2019-02-23T14:47:22.377Z,13.50
2019-02-23T14:50:06.388Z,8.63
2019-02-23T14:52:53.140Z,12.53
2019-02-23T14:55:37.039Z,10.82
2019-02-23T14:58:26.797Z,14.55
2019-02-23T15:01:32.692Z,20.35
2019-02-23T15:04:07.577Z,10.98
2019-02-23T15:06:58.598Z,13.68
2019-02-23T15:09:30.497Z,12.58
2019-02-23T15:12:20.557Z,13.22
2019-02-23T15:15:27.398Z,12.18
2019-02-23T15:18:26.573Z,16.55
2019-02-23T15:21:30.228Z,12.95
2019-02-23T15:24:08.431Z,7.80
2019-02-23T15:26:57.247Z,9.68
2019-02-23T15:29:32.347Z,10.88
2019-02-23T15:32:06.911Z,9.28
2019-02-23T15:34:53.680Z,12.37
2019-02-23T15:37:43.033Z,9.60
2019-02-23T15:40:23.639Z,8.83
2019-02-23T15:43:01.262Z,7.37
2019-02-23T15:45:39.172Z,7.50
2019-02-23T15:48:13.967Z,11.48
2019-02-23T15:50:42.864Z,9.03
2019-02-23T15:53:11.738Z,12.15
2019-02-23T15:55:40.644Z,9.40
2019-02-23T15:58:09.508Z,10.58
2019-02-23T16:00:38.495Z,9.78
2019-02-23T16:03:07.338Z,17.65
2019-02-23T16:05:36.207Z,16.00
2019-02-23T16:08:05.241Z,16.23
2019-02-23T16:10:34.136Z,15.38
2019-02-23T16:13:02.993Z,14.65
2019-02-23T16:15:31.877Z,15.55
2019-02-23T16:18:00.755Z,18.37
2019-02-23T16:20:29.637Z,18.07
2019-02-23T16:22:58.531Z,13.15
2019-02-23T16:25:38.004Z,16.42
2019-02-23T16:27:58.025Z,18.00
2019-02-23T16:30:26.878Z,19.65
2019-02-23T16:32:55.762Z,12.25
2019-02-23T16:35:24.617Z,16.73
2019-02-23T16:37:53.504Z,16.62
2019-02-23T16:40:22.750Z,16.75
2019-02-23T16:42:51.602Z,16.80
2019-02-23T16:45:20.477Z,17.42
2019-02-23T16:47:49.353Z,14.68
2019-02-23T16:50:18.244Z,25.02
2019-02-23T16:52:47.140Z,19.25
2019-02-23T16:55:15.996Z,20.05
2019-02-23T16:57:44.872Z,18.32
2019-02-23T17:00:13.746Z,21.70
2019-02-23T17:02:42.620Z,17.90
2019-02-23T17:05:11.603Z,15.72
2019-02-23T17:07:40.459Z,15.85
2019-02-23T17:10:09.357Z,15.78
2019-02-23T17:12:38.267Z,21.60
2019-02-23T17:15:10.518Z,22.35
2019-02-23T17:17:38.570Z,18.48
2019-02-23T17:20:07.466Z,21.48
2019-02-23T17:22:36.335Z,19.48
2019-02-23T17:25:06.478Z,21.55
2019-02-23T17:27:36.503Z,18.75
2019-02-23T17:30:07.734Z,19.05
2019-02-23T17:32:36.700Z,14.63
2019-02-23T17:35:06.759Z,18.12
2019-02-23T17:37:35.639Z,18.95
2019-02-23T17:40:06.137Z,19.17
2019-02-23T17:42:35.064Z,45.55
2019-02-23T17:45:04.384Z,20.27
2019-02-23T17:47:33.599Z,19.92
2019-02-23T17:50:02.430Z,17.23
2019-02-23T17:52:31.299Z,17.55
2019-02-23T17:55:00.284Z,21.62
2019-02-23T17:57:30.599Z,22.95
2019-02-23T17:59:59.507Z,22.40
2019-02-23T18:02:28.379Z,22.50
2019-02-23T18:04:57.292Z,23.05
2019-02-23T18:07:26.189Z,19.55
2019-02-23T18:09:55.061Z,21.07
2019-02-23T18:12:23.964Z,20.88
2019-02-23T18:14:52.869Z,16.05
2019-02-23T18:17:21.825Z,22.17
2019-02-23T18:19:50.702Z,22.55
2019-02-23T18:22:19.584Z,23.12
2019-02-23T18:24:48.474Z,25.92
2019-02-23T18:27:17.372Z,29.02
2019-02-23T18:29:47.814Z,24.12
2019-02-23T18:32:23.984Z,20.35
2019-02-23T18:34:53.773Z,24.23
2019-02-23T18:37:22.793Z,29.27
2019-02-23T18:39:52.358Z,22.42
2019-02-23T18:42:21.328Z,21.65
2019-02-23T18:44:50.198Z,20.27
2019-02-23T18:47:19.098Z,17.70
2019-02-23T18:49:48.002Z,19.45
2019-02-23T18:52:16.910Z,25.25
2019-02-23T18:54:45.762Z,23.18
2019-02-23T18:57:14.659Z,23.25
2019-02-23T18:59:43.574Z,24.20
2019-02-23T19:02:12.444Z,23.25
2019-02-23T19:04:41.322Z,25.97
2019-02-23T19:07:10.276Z,31.33
2019-02-23T19:09:39.189Z,25.37
2019-02-23T19:12:08.072Z,23.73
2019-02-23T19:14:36.965Z,22.80
2019-02-23T19:17:05.831Z,26.02
2019-02-23T19:19:34.766Z,21.68
2019-02-23T19:22:03.785Z,22.30
2019-02-23T19:24:32.632Z,24.32
2019-02-23T19:27:01.539Z,25.30
2019-02-23T19:29:32.131Z,24.92
2019-02-23T19:32:01.017Z,27.37
2019-02-23T19:34:29.922Z,27.85
2019-02-23T19:36:59.933Z,29.63
2019-02-23T19:39:28.817Z,25.92
2019-02-23T19:41:57.713Z,26.07
2019-02-23T19:44:26.624Z,21.55
2019-02-23T19:46:55.991Z,25.12
2019-02-23T19:49:24.904Z,22.85
2019-02-23T19:51:53.856Z,24.32
2019-02-23T19:54:22.726Z,25.40
2019-02-23T19:56:51.608Z,31.37
2019-02-23T19:59:20.475Z,25.50
2019-02-23T20:01:49.387Z,25.57
2019-02-23T20:04:18.286Z,27.55
2019-02-23T20:06:47.203Z,28.07
2019-02-23T20:09:16.078Z,25.97
2019-02-23T20:11:44.970Z,20.72
2019-02-23T20:14:15.345Z,27.48
2019-02-23T20:16:44.250Z,26.17
2019-02-23T20:19:13.153Z,36.85
2019-02-23T20:21:42.185Z,32.42
2019-02-23T20:24:11.063Z,25.60
2019-02-23T20:26:40.080Z,32.58
2019-02-23T20:29:08.946Z,34.25
2019-02-23T20:31:37.846Z,28.17
2019-02-23T20:34:06.757Z,42.23
2019-02-23T20:36:35.657Z,37.17
2019-02-23T20:39:05.280Z,31.68
2019-02-23T20:41:34.216Z,29.00
2019-02-23T20:44:03.134Z,30.75
2019-02-23T20:46:32.016Z,29.18
2019-02-23T20:49:01.072Z,28.52
2019-02-23T20:51:29.950Z,28.38
2019-02-23T20:53:58.850Z,32.05
2019-02-23T20:56:27.726Z,27.20
2019-02-23T20:58:56.634Z,29.10
2019-02-23T21:01:25.532Z,36.00
2019-02-23T21:03:54.426Z,33.25
2019-02-23T21:06:23.331Z,45.15
2019-02-23T21:08:52.249Z,55.33
2019-02-23T21:11:21.181Z,80.00
2019-02-23T21:13:51.652Z,109.50
2019-02-23T21:16:20.654Z,103.85
2019-02-23T21:18:49.550Z,115.55
2019-02-23T21:21:18.428Z,85.40
2019-02-23T21:23:47.478Z,78.10
2019-02-23T21:26:16.394Z,63.85
2019-02-23T21:28:45.275Z,54.95
2019-02-23T21:31:14.168Z,61.18
2019-02-23T21:33:44.125Z,71.90
2019-02-23T21:36:13.383Z,100.75
2019-02-23T21:38:42.419Z,90.60
2019-02-23T21:41:11.369Z,69.95
2019-02-23T21:43:40.246Z,68.55
2019-02-23T21:46:09.388Z,67.92
2019-02-23T21:48:38.663Z,59.48
2019-02-23T21:51:07.560Z,58.73
2019-02-23T21:53:36.416Z,58.78
2019-02-23T21:56:05.367Z,57.98
2019-02-23T21:58:34.215Z,59.58
2019-02-23T22:01:03.106Z,49.08
2019-02-23T22:03:32.001Z,42.65
2019-02-23T22:06:00.919Z,38.63
2019-02-23T22:08:29.777Z,29.50
2019-02-23T22:10:58.682Z,26.05
2019-02-23T22:13:27.541Z,28.27
2019-02-23T22:15:56.405Z,30.57
2019-02-23T22:18:28.309Z,30.20
2019-02-23T22:20:58.329Z,35.60
2019-02-23T22:23:27.332Z,29.77
2019-02-23T22:25:56.232Z,33.23
2019-02-23T22:28:25.137Z,32.03
2019-02-23T22:30:54.009Z,27.13
2019-02-23T22:33:24.437Z,24.20
2019-02-23T22:35:53.316Z,25.25
2019-02-23T22:38:22.219Z,25.90
2019-02-23T22:40:52.844Z,29.80
2019-02-23T22:43:21.747Z,33.65
2019-02-23T22:45:50.753Z,29.25
2019-02-23T22:48:19.647Z,36.68
2019-02-23T22:50:48.681Z,33.48
2019-02-23T22:53:17.587Z,43.80
2019-02-23T22:55:46.463Z,31.17
2019-02-23T22:58:15.385Z,37.93
2019-02-23T23:00:58.579Z,33.50
2019-02-23T23:03:27.475Z,33.00
2019-02-23T23:05:56.346Z,34.45
2019-02-23T23:08:25.789Z,37.95
2019-02-23T23:10:54.673Z,39.03
2019-02-23T23:13:23.921Z,40.17
2019-02-23T23:15:54.707Z,38.58
2019-02-23T23:18:23.623Z,36.68
2019-02-23T23:20:52.483Z,31.17
2019-02-23T23:23:21.390Z,37.75
2019-02-23T23:25:50.258Z,38.50
2019-02-23T23:28:19.172Z,42.30
2019-02-23T23:30:48.063Z,38.50
2019-02-23T23:33:16.945Z,40.15
2019-02-23T23:35:45.815Z,46.18
2019-02-23T23:38:14.676Z,34.65
2019-02-23T23:40:43.571Z,35.15
2019-02-23T23:43:12.472Z,33.73
2019-02-23T23:45:41.342Z,39.42
2019-02-23T23:48:10.257Z,35.43
2019-02-23T23:50:39.871Z,35.40
2019-02-23T23:53:08.764Z,34.60
2019-02-23T23:55:37.678Z,44.48
2019-02-23T23:58:06.549Z,37.23
